sensor_id;sensor_type;location;lat;lon;timestamp;P1;durP1;ratioP1;P2;durP2;ratioP2
6475;SDS011;3271;51.910;5.840;2022-10-16T00:01:59;2.60;;;1.90;;
6475;SDS011;3271;51.910;5.840;2022-10-16T00:04:25;2.70;;;2.42;;
6475;SDS011;3271;51.910;5.840;2022-10-16T00:06:51;2.47;;;2.20;;
6475;SDS011;3271;51.910;5.840;2022-10-16T00:09:17;3.33;;;2.15;;
6475;SDS011;3271;51.910;5.840;2022-10-16T00:11:43;3.08;;;2.08;;
6475;SDS011;3271;51.910;5.840;2022-10-16T00:14:10;3.55;;;2.28;;
6475;SDS011;3271;51.910;5.840;2022-10-16T00:16:37;2.75;;;2.45;;
6475;SDS011;3271;51.910;5.840;2022-10-16T00:19:04;4.07;;;2.08;;
6475;SDS011;3271;51.910;5.840;2022-10-16T00:21:30;2.40;;;2.10;;
6475;SDS011;3271;51.910;5.840;2022-10-16T00:24:02;2.95;;;2.25;;
6475;SDS011;3271;51.910;5.840;2022-10-16T00:26:29;3.45;;;2.10;;
6475;SDS011;3271;51.910;5.840;2022-10-16T00:28:56;4.50;;;3.28;;
6475;SDS011;3271;51.910;5.840;2022-10-16T00:31:22;2.03;;;1.83;;
6475;SDS011;3271;51.910;5.840;2022-10-16T00:33:48;2.97;;;2.42;;
6475;SDS011;3271;51.910;5.840;2022-10-16T00:36:15;3.00;;;2.25;;
6475;SDS011;3271;51.910;5.840;2022-10-16T00:38:41;3.92;;;2.42;;
6475;SDS011;3271;51.910;5.840;2022-10-16T00:41:07;2.65;;;2.20;;
6475;SDS011;3271;51.910;5.840;2022-10-16T00:43:42;3.60;;;2.30;;
6475;SDS011;3271;51.910;5.840;2022-10-16T00:48:45;2.88;;;2.15;;
6475;SDS011;3271;51.910;5.840;2022-10-16T00:51:12;3.63;;;2.70;;
6475;SDS011;3271;51.910;5.840;2022-10-16T00:53:37;4.30;;;2.60;;
6475;SDS011;3271;51.910;5.840;2022-10-16T00:56:03;4.00;;;2.60;;
6475;SDS011;3271;51.910;5.840;2022-10-16T00:58:29;2.65;;;2.45;;
6475;SDS011;3271;51.910;5.840;2022-10-16T01:00:55;2.40;;;2.20;;
6475;SDS011;3271;51.910;5.840;2022-10-16T01:03:23;2.25;;;2.05;;
6475;SDS011;3271;51.910;5.840;2022-10-16T01:05:52;2.95;;;2.47;;
6475;SDS011;3271;51.910;5.840;2022-10-16T01:08:34;5.22;;;2.47;;
6475;SDS011;3271;51.910;5.840;2022-10-16T01:11:08;3.45;;;2.40;;
6475;SDS011;3271;51.910;5.840;2022-10-16T01:13:38;3.20;;;2.60;;
6475;SDS011;3271;51.910;5.840;2022-10-16T01:16:07;3.30;;;2.30;;
6475;SDS011;3271;51.910;5.840;2022-10-16T01:18:52;3.25;;;2.60;;
6475;SDS011;3271;51.910;5.840;2022-10-16T01:21:24;2.42;;;2.22;;
6475;SDS011;3271;51.910;5.840;2022-10-16T01:29:24;3.72;;;2.90;;
6475;SDS011;3271;51.910;5.840;2022-10-16T01:31:56;3.65;;;2.28;;
6475;SDS011;3271;51.910;5.840;2022-10-16T01:34:32;4.00;;;2.55;;
6475;SDS011;3271;51.910;5.840;2022-10-16T01:37:04;3.15;;;2.10;;
6475;SDS011;3271;51.910;5.840;2022-10-16T01:39:31;3.97;;;2.05;;
6475;SDS011;3271;51.910;5.840;2022-10-16T01:42:02;2.70;;;2.50;;
6475;SDS011;3271;51.910;5.840;2022-10-16T01:44:29;3.97;;;2.70;;
6475;SDS011;3271;51.910;5.840;2022-10-16T01:46:56;2.72;;;2.40;;
6475;SDS011;3271;51.910;5.840;2022-10-16T01:49:23;2.58;;;2.22;;
6475;SDS011;3271;51.910;5.840;2022-10-16T01:51:52;3.00;;;2.05;;
6475;SDS011;3271;51.910;5.840;2022-10-16T01:54:20;2.63;;;1.98;;
6475;SDS011;3271;51.910;5.840;2022-10-16T01:56:47;2.60;;;2.20;;
6475;SDS011;3271;51.910;5.840;2022-10-16T01:59:15;3.58;;;2.33;;
6475;SDS011;3271;51.910;5.840;2022-10-16T02:01:42;2.28;;;2.00;;
6475;SDS011;3271;51.910;5.840;2022-10-16T02:04:15;5.85;;;2.70;;
6475;SDS011;3271;51.910;5.840;2022-10-16T02:06:42;3.10;;;2.70;;
6475;SDS011;3271;51.910;5.840;2022-10-16T02:09:08;2.40;;;1.98;;
6475;SDS011;3271;51.910;5.840;2022-10-16T02:11:35;3.15;;;2.30;;
6475;SDS011;3271;51.910;5.840;2022-10-16T02:14:04;3.67;;;2.67;;
6475;SDS011;3271;51.910;5.840;2022-10-16T02:16:41;3.25;;;2.20;;
6475;SDS011;3271;51.910;5.840;2022-10-16T02:19:07;5.97;;;2.50;;
6475;SDS011;3271;51.910;5.840;2022-10-16T02:24:27;2.15;;;1.90;;
6475;SDS011;3271;51.910;5.840;2022-10-16T02:26:55;2.33;;;1.90;;
6475;SDS011;3271;51.910;5.840;2022-10-16T02:29:24;2.65;;;1.58;;
6475;SDS011;3271;51.910;5.840;2022-10-16T02:31:54;2.40;;;2.10;;
6475;SDS011;3271;51.910;5.840;2022-10-16T02:34:21;2.67;;;1.67;;
6475;SDS011;3271;51.910;5.840;2022-10-16T02:36:48;2.05;;;1.67;;
6475;SDS011;3271;51.910;5.840;2022-10-16T02:39:14;4.05;;;1.88;;
6475;SDS011;3271;51.910;5.840;2022-10-16T02:41:41;3.08;;;1.83;;
6475;SDS011;3271;51.910;5.840;2022-10-16T02:44:08;2.67;;;2.08;;
6475;SDS011;3271;51.910;5.840;2022-10-16T02:46:33;2.05;;;1.85;;
6475;SDS011;3271;51.910;5.840;2022-10-16T02:48:59;2.75;;;2.22;;
6475;SDS011;3271;51.910;5.840;2022-10-16T02:51:25;3.05;;;2.00;;
6475;SDS011;3271;51.910;5.840;2022-10-16T02:53:51;3.40;;;2.00;;
6475;SDS011;3271;51.910;5.840;2022-10-16T02:56:17;2.03;;;1.83;;
6475;SDS011;3271;51.910;5.840;2022-10-16T02:58:43;3.33;;;1.83;;
6475;SDS011;3271;51.910;5.840;2022-10-16T03:01:09;2.70;;;1.63;;
6475;SDS011;3271;51.910;5.840;2022-10-16T03:03:37;3.20;;;2.05;;
6475;SDS011;3271;51.910;5.840;2022-10-16T03:06:03;1.98;;;1.70;;
6475;SDS011;3271;51.910;5.840;2022-10-16T03:08:29;3.50;;;1.67;;
6475;SDS011;3271;51.910;5.840;2022-10-16T03:10:55;2.30;;;1.77;;
6475;SDS011;3271;51.910;5.840;2022-10-16T03:13:21;2.47;;;2.05;;
6475;SDS011;3271;51.910;5.840;2022-10-16T03:15:47;2.60;;;1.70;;
6475;SDS011;3271;51.910;5.840;2022-10-16T03:18:13;1.77;;;1.60;;
6475;SDS011;3271;51.910;5.840;2022-10-16T03:20:39;1.70;;;1.60;;
6475;SDS011;3271;51.910;5.840;2022-10-16T03:23:05;1.80;;;1.70;;
6475;SDS011;3271;51.910;5.840;2022-10-16T03:25:33;2.90;;;1.80;;
6475;SDS011;3271;51.910;5.840;2022-10-16T03:27:59;1.77;;;1.40;;
6475;SDS011;3271;51.910;5.840;2022-10-16T03:30:24;2.03;;;1.30;;
6475;SDS011;3271;51.910;5.840;2022-10-16T03:32:50;2.03;;;1.60;;
6475;SDS011;3271;51.910;5.840;2022-10-16T03:35:19;3.42;;;1.90;;
6475;SDS011;3271;51.910;5.840;2022-10-16T03:37:45;2.88;;;1.80;;
6475;SDS011;3271;51.910;5.840;2022-10-16T03:40:11;3.42;;;1.60;;
6475;SDS011;3271;51.910;5.840;2022-10-16T03:42:37;3.40;;;1.80;;
6475;SDS011;3271;51.910;5.840;2022-10-16T03:45:03;2.10;;;1.90;;
6475;SDS011;3271;51.910;5.840;2022-10-16T03:47:29;2.10;;;1.90;;
6475;SDS011;3271;51.910;5.840;2022-10-16T03:49:57;2.03;;;1.83;;
6475;SDS011;3271;51.910;5.840;2022-10-16T03:52:23;2.70;;;1.80;;
6475;SDS011;3271;51.910;5.840;2022-10-16T03:54:49;2.00;;;1.70;;
6475;SDS011;3271;51.910;5.840;2022-10-16T03:57:15;2.00;;;1.60;;
6475;SDS011;3271;51.910;5.840;2022-10-16T03:59:41;1.92;;;1.80;;
6475;SDS011;3271;51.910;5.840;2022-10-16T04:02:07;1.77;;;1.67;;
6475;SDS011;3271;51.910;5.840;2022-10-16T04:04:33;2.15;;;1.85;;
6475;SDS011;3271;51.910;5.840;2022-10-16T04:06:59;3.25;;;1.63;;
6475;SDS011;3271;51.910;5.840;2022-10-16T04:09:25;2.38;;;2.03;;
6475;SDS011;3271;51.910;5.840;2022-10-16T04:11:51;2.90;;;1.92;;
6475;SDS011;3271;51.910;5.840;2022-10-16T04:14:17;3.35;;;1.98;;
6475;SDS011;3271;51.910;5.840;2022-10-16T04:16:43;1.55;;;1.45;;
6475;SDS011;3271;51.910;5.840;2022-10-16T04:19:09;1.90;;;1.60;;
6475;SDS011;3271;51.910;5.840;2022-10-16T04:21:36;2.30;;;1.42;;
6475;SDS011;3271;51.910;5.840;2022-10-16T04:24:02;2.08;;;1.58;;
6475;SDS011;3271;51.910;5.840;2022-10-16T04:26:28;4.10;;;2.05;;
6475;SDS011;3271;51.910;5.840;2022-10-16T04:28:54;3.20;;;1.80;;
6475;SDS011;3271;51.910;5.840;2022-10-16T04:31:20;1.73;;;1.63;;
6475;SDS011;3271;51.910;5.840;2022-10-16T04:33:46;3.17;;;1.95;;
6475;SDS011;3271;51.910;5.840;2022-10-16T04:36:12;2.17;;;1.90;;
6475;SDS011;3271;51.910;5.840;2022-10-16T04:38:38;2.40;;;1.63;;
6475;SDS011;3271;51.910;5.840;2022-10-16T04:41:05;4.30;;;1.50;;
6475;SDS011;3271;51.910;5.840;2022-10-16T04:43:31;2.30;;;1.70;;
6475;SDS011;3271;51.910;5.840;2022-10-16T04:45:57;2.25;;;1.40;;
6475;SDS011;3271;51.910;5.840;2022-10-16T04:48:23;1.50;;;1.40;;
6475;SDS011;3271;51.910;5.840;2022-10-16T04:50:49;3.80;;;1.70;;
6475;SDS011;3271;51.910;5.840;2022-10-16T04:53:15;2.00;;;1.75;;
6475;SDS011;3271;51.910;5.840;2022-10-16T04:55:41;1.63;;;1.42;;
6475;SDS011;3271;51.910;5.840;2022-10-16T04:58:07;1.67;;;1.52;;
6475;SDS011;3271;51.910;5.840;2022-10-16T05:00:33;2.00;;;1.80;;
6475;SDS011;3271;51.910;5.840;2022-10-16T05:02:59;1.80;;;1.70;;
6475;SDS011;3271;51.910;5.840;2022-10-16T05:05:26;1.65;;;1.40;;
6475;SDS011;3271;51.910;5.840;2022-10-16T05:07:52;1.98;;;1.50;;
6475;SDS011;3271;51.910;5.840;2022-10-16T05:10:18;2.65;;;1.70;;
6475;SDS011;3271;51.910;5.840;2022-10-16T05:12:44;3.03;;;1.60;;
6475;SDS011;3271;51.910;5.840;2022-10-16T05:15:10;2.13;;;1.58;;
6475;SDS011;3271;51.910;5.840;2022-10-16T05:17:36;2.13;;;1.55;;
6475;SDS011;3271;51.910;5.840;2022-10-16T05:20:02;1.75;;;1.65;;
6475;SDS011;3271;51.910;5.840;2022-10-16T05:22:28;3.65;;;1.60;;
6475;SDS011;3271;51.910;5.840;2022-10-16T05:24:54;2.95;;;1.52;;
6475;SDS011;3271;51.910;5.840;2022-10-16T05:27:20;4.53;;;3.15;;
6475;SDS011;3271;51.910;5.840;2022-10-16T05:29:46;2.83;;;2.38;;
6475;SDS011;3271;51.910;5.840;2022-10-16T05:32:13;1.58;;;1.48;;
6475;SDS011;3271;51.910;5.840;2022-10-16T05:34:39;2.70;;;1.50;;
6475;SDS011;3271;51.910;5.840;2022-10-16T05:37:05;1.60;;;1.50;;
6475;SDS011;3271;51.910;5.840;2022-10-16T05:39:31;1.40;;;1.20;;
6475;SDS011;3271;51.910;5.840;2022-10-16T05:41:57;1.77;;;1.63;;
6475;SDS011;3271;51.910;5.840;2022-10-16T05:44:23;2.42;;;2.05;;
6475;SDS011;3271;51.910;5.840;2022-10-16T05:46:49;2.28;;;1.83;;
6475;SDS011;3271;51.910;5.840;2022-10-16T05:49:15;1.42;;;1.33;;
6475;SDS011;3271;51.910;5.840;2022-10-16T05:51:41;3.78;;;1.63;;
6475;SDS011;3271;51.910;5.840;2022-10-16T05:54:07;3.30;;;1.80;;
6475;SDS011;3271;51.910;5.840;2022-10-16T05:56:33;2.25;;;1.50;;
6475;SDS011;3271;51.910;5.840;2022-10-16T05:58:59;1.70;;;1.60;;
6475;SDS011;3271;51.910;5.840;2022-10-16T06:01:25;2.22;;;1.60;;
6475;SDS011;3271;51.910;5.840;2022-10-16T06:03:51;1.98;;;1.70;;
6475;SDS011;3271;51.910;5.840;2022-10-16T06:06:18;1.77;;;1.55;;
6475;SDS011;3271;51.910;5.840;2022-10-16T06:08:45;3.70;;;1.80;;
6475;SDS011;3271;51.910;5.840;2022-10-16T06:11:13;1.92;;;1.80;;
6475;SDS011;3271;51.910;5.840;2022-10-16T06:13:39;2.45;;;1.50;;
6475;SDS011;3271;51.910;5.840;2022-10-16T06:16:10;2.08;;;1.75;;
6475;SDS011;3271;51.910;5.840;2022-10-16T06:18:36;3.65;;;1.70;;
6475;SDS011;3271;51.910;5.840;2022-10-16T06:21:09;2.38;;;1.70;;
6475;SDS011;3271;51.910;5.840;2022-10-16T06:23:35;2.65;;;1.70;;
6475;SDS011;3271;51.910;5.840;2022-10-16T06:26:08;2.17;;;1.98;;
6475;SDS011;3271;51.910;5.840;2022-10-16T06:28:34;4.53;;;1.92;;
6475;SDS011;3271;51.910;5.840;2022-10-16T06:31:00;1.88;;;1.45;;
6475;SDS011;3271;51.910;5.840;2022-10-16T06:33:26;2.92;;;1.90;;
6475;SDS011;3271;51.910;5.840;2022-10-16T06:35:52;3.38;;;1.80;;
6475;SDS011;3271;51.910;5.840;2022-10-16T06:38:18;3.38;;;1.55;;
6475;SDS011;3271;51.910;5.840;2022-10-16T06:40:44;1.80;;;1.70;;
6475;SDS011;3271;51.910;5.840;2022-10-16T06:43:10;1.73;;;1.63;;
6475;SDS011;3271;51.910;5.840;2022-10-16T06:45:36;1.70;;;1.60;;
6475;SDS011;3271;51.910;5.840;2022-10-16T06:48:02;2.55;;;1.70;;
6475;SDS011;3271;51.910;5.840;2022-10-16T06:50:28;5.22;;;2.33;;
6475;SDS011;3271;51.910;5.840;2022-10-16T06:52:54;3.17;;;1.73;;
6475;SDS011;3271;51.910;5.840;2022-10-16T06:55:20;2.25;;;2.00;;
6475;SDS011;3271;51.910;5.840;2022-10-16T06:57:49;2.10;;;1.90;;
6475;SDS011;3271;51.910;5.840;2022-10-16T07:00:15;3.25;;;1.70;;
6475;SDS011;3271;51.910;5.840;2022-10-16T07:02:41;1.90;;;1.67;;
6475;SDS011;3271;51.910;5.840;2022-10-16T07:05:07;2.92;;;2.00;;
6475;SDS011;3271;51.910;5.840;2022-10-16T07:07:33;2.08;;;1.90;;
6475;SDS011;3271;51.910;5.840;2022-10-16T07:09:58;1.90;;;1.70;;
6475;SDS011;3271;51.910;5.840;2022-10-16T07:12:24;3.90;;;2.28;;
6475;SDS011;3271;51.910;5.840;2022-10-16T07:14:50;3.38;;;1.90;;
6475;SDS011;3271;51.910;5.840;2022-10-16T07:17:17;1.83;;;1.73;;
6475;SDS011;3271;51.910;5.840;2022-10-16T07:19:43;3.88;;;1.70;;
6475;SDS011;3271;51.910;5.840;2022-10-16T07:22:09;3.60;;;2.03;;
6475;SDS011;3271;51.910;5.840;2022-10-16T07:24:35;2.67;;;2.05;;
6475;SDS011;3271;51.910;5.840;2022-10-16T07:27:01;2.13;;;1.67;;
6475;SDS011;3271;51.910;5.840;2022-10-16T07:29:27;3.45;;;1.83;;
6475;SDS011;3271;51.910;5.840;2022-10-16T07:31:52;6.35;;;1.92;;
6475;SDS011;3271;51.910;5.840;2022-10-16T07:34:19;3.00;;;1.60;;
6475;SDS011;3271;51.910;5.840;2022-10-16T07:36:49;4.75;;;2.00;;
6475;SDS011;3271;51.910;5.840;2022-10-16T07:39:16;3.15;;;1.88;;
6475;SDS011;3271;51.910;5.840;2022-10-16T07:41:42;5.03;;;1.90;;
6475;SDS011;3271;51.910;5.840;2022-10-16T07:44:08;3.33;;;1.98;;
6475;SDS011;3271;51.910;5.840;2022-10-16T07:46:34;4.53;;;2.33;;
6475;SDS011;3271;51.910;5.840;2022-10-16T07:49:01;3.65;;;1.75;;
6475;SDS011;3271;51.910;5.840;2022-10-16T07:51:27;5.13;;;2.10;;
6475;SDS011;3271;51.910;5.840;2022-10-16T07:53:53;3.65;;;2.20;;
6475;SDS011;3271;51.910;5.840;2022-10-16T07:56:20;2.35;;;1.60;;
6475;SDS011;3271;51.910;5.840;2022-10-16T07:58:46;4.35;;;2.17;;
6475;SDS011;3271;51.910;5.840;2022-10-16T08:01:14;3.50;;;2.47;;
6475;SDS011;3271;51.910;5.840;2022-10-16T08:03:47;3.42;;;2.00;;
6475;SDS011;3271;51.910;5.840;2022-10-16T08:06:14;2.40;;;1.90;;
6475;SDS011;3271;51.910;5.840;2022-10-16T08:08:40;4.28;;;2.15;;
6475;SDS011;3271;51.910;5.840;2022-10-16T08:11:06;3.72;;;2.20;;
6475;SDS011;3271;51.910;5.840;2022-10-16T08:13:33;2.22;;;2.03;;
6475;SDS011;3271;51.910;5.840;2022-10-16T08:15:59;3.80;;;3.08;;
6475;SDS011;3271;51.910;5.840;2022-10-16T08:18:25;4.72;;;2.88;;
6475;SDS011;3271;51.910;5.840;2022-10-16T08:20:55;4.07;;;2.47;;
6475;SDS011;3271;51.910;5.840;2022-10-16T08:23:21;4.45;;;2.40;;
6475;SDS011;3271;51.910;5.840;2022-10-16T08:25:47;4.63;;;2.28;;
6475;SDS011;3271;51.910;5.840;2022-10-16T08:28:13;4.20;;;2.28;;
6475;SDS011;3271;51.910;5.840;2022-10-16T08:30:40;3.75;;;2.38;;
6475;SDS011;3271;51.910;5.840;2022-10-16T08:33:06;3.90;;;2.10;;
6475;SDS011;3271;51.910;5.840;2022-10-16T08:35:32;4.68;;;2.05;;
6475;SDS011;3271;51.910;5.840;2022-10-16T08:37:58;3.00;;;2.35;;
6475;SDS011;3271;51.910;5.840;2022-10-16T08:40:28;5.43;;;2.00;;
6475;SDS011;3271;51.910;5.840;2022-10-16T08:48:20;3.83;;;2.28;;
6475;SDS011;3271;51.910;5.840;2022-10-16T08:50:51;4.80;;;1.88;;
6475;SDS011;3271;51.910;5.840;2022-10-16T08:53:19;2.72;;;1.85;;
6475;SDS011;3271;51.910;5.840;2022-10-16T08:55:51;3.80;;;1.80;;
6475;SDS011;3271;51.910;5.840;2022-10-16T08:58:18;3.92;;;2.00;;
6475;SDS011;3271;51.910;5.840;2022-10-16T09:00:49;2.65;;;1.80;;
6475;SDS011;3271;51.910;5.840;2022-10-16T09:03:22;3.03;;;1.70;;
6475;SDS011;3271;51.910;5.840;2022-10-16T09:13:53;3.70;;;1.70;;
6475;SDS011;3271;51.910;5.840;2022-10-16T09:18:38;3.75;;;2.20;;
6475;SDS011;3271;51.910;5.840;2022-10-16T09:21:13;4.72;;;1.67;;
6475;SDS011;3271;51.910;5.840;2022-10-16T09:23:39;3.88;;;1.40;;
6475;SDS011;3271;51.910;5.840;2022-10-16T09:26:08;3.00;;;1.58;;
6475;SDS011;3271;51.910;5.840;2022-10-16T09:28:35;4.35;;;1.70;;
6475;SDS011;3271;51.910;5.840;2022-10-16T09:31:01;4.22;;;2.33;;
6475;SDS011;3271;51.910;5.840;2022-10-16T09:33:33;4.35;;;1.98;;
6475;SDS011;3271;51.910;5.840;2022-10-16T09:36:01;3.53;;;1.70;;
6475;SDS011;3271;51.910;5.840;2022-10-16T09:38:29;4.50;;;1.88;;
6475;SDS011;3271;51.910;5.840;2022-10-16T09:40:56;2.53;;;1.58;;
6475;SDS011;3271;51.910;5.840;2022-10-16T09:43:24;4.68;;;1.70;;
6475;SDS011;3271;51.910;5.840;2022-10-16T09:46:36;3.35;;;1.80;;
6475;SDS011;3271;51.910;5.840;2022-10-16T09:48:43;3.72;;;2.00;;
6475;SDS011;3271;51.910;5.840;2022-10-16T09:51:18;4.28;;;2.42;;
6475;SDS011;3271;51.910;5.840;2022-10-16T09:53:46;4.40;;;1.55;;
6475;SDS011;3271;51.910;5.840;2022-10-16T09:56:20;7.65;;;2.22;;
6475;SDS011;3271;51.910;5.840;2022-10-16T09:58:50;3.42;;;1.67;;
6475;SDS011;3271;51.910;5.840;2022-10-16T10:01:17;7.35;;;1.80;;
6475;SDS011;3271;51.910;5.840;2022-10-16T10:03:43;5.00;;;2.10;;
6475;SDS011;3271;51.910;5.840;2022-10-16T10:06:23;6.03;;;2.03;;
6475;SDS011;3271;51.910;5.840;2022-10-16T10:08:54;3.13;;;1.70;;
6475;SDS011;3271;51.910;5.840;2022-10-16T10:11:38;6.35;;;1.88;;
6475;SDS011;3271;51.910;5.840;2022-10-16T10:14:06;5.43;;;1.92;;
6475;SDS011;3271;51.910;5.840;2022-10-16T10:16:34;4.38;;;1.48;;
6475;SDS011;3271;51.910;5.840;2022-10-16T10:19:01;6.97;;;1.90;;
6475;SDS011;3271;51.910;5.840;2022-10-16T10:21:26;4.05;;;2.10;;
6475;SDS011;3271;51.910;5.840;2022-10-16T10:23:55;8.55;;;2.17;;
6475;SDS011;3271;51.910;5.840;2022-10-16T10:26:26;4.88;;;1.70;;
6475;SDS011;3271;51.910;5.840;2022-10-16T10:31:41;6.25;;;2.53;;
6475;SDS011;3271;51.910;5.840;2022-10-16T10:34:32;5.10;;;1.90;;
6475;SDS011;3271;51.910;5.840;2022-10-16T10:37:03;6.80;;;2.13;;
6475;SDS011;3271;51.910;5.840;2022-10-16T10:39:32;5.00;;;2.25;;
6475;SDS011;3271;51.910;5.840;2022-10-16T10:42:09;5.65;;;2.00;;
6475;SDS011;3271;51.910;5.840;2022-10-16T10:47:17;10.88;;;1.98;;
6475;SDS011;3271;51.910;5.840;2022-10-16T11:07:37;5.97;;;2.38;;
6475;SDS011;3271;51.910;5.840;2022-10-16T11:10:05;6.43;;;2.03;;
6475;SDS011;3271;51.910;5.840;2022-10-16T11:12:36;9.85;;;2.05;;
6475;SDS011;3271;51.910;5.840;2022-10-16T11:17:48;5.60;;;2.05;;
6475;SDS011;3271;51.910;5.840;2022-10-16T11:20:25;7.95;;;2.08;;
6475;SDS011;3271;51.910;5.840;2022-10-16T11:23:00;4.38;;;1.75;;
6475;SDS011;3271;51.910;5.840;2022-10-16T11:25:29;5.72;;;2.40;;
6475;SDS011;3271;51.910;5.840;2022-10-16T11:28:03;9.70;;;1.80;;
6475;SDS011;3271;51.910;5.840;2022-10-16T11:30:34;4.75;;;2.33;;
6475;SDS011;3271;51.910;5.840;2022-10-16T11:33:18;5.97;;;1.88;;
6475;SDS011;3271;51.910;5.840;2022-10-16T11:40:58;4.07;;;1.95;;
6475;SDS011;3271;51.910;5.840;2022-10-16T11:43:26;7.65;;;1.92;;
6475;SDS011;3271;51.910;5.840;2022-10-16T11:45:57;6.25;;;1.95;;
6475;SDS011;3271;51.910;5.840;2022-10-16T11:48:31;6.43;;;1.85;;
6475;SDS011;3271;51.910;5.840;2022-10-16T11:51:00;8.27;;;1.98;;
6475;SDS011;3271;51.910;5.840;2022-10-16T11:53:39;6.70;;;2.08;;
6475;SDS011;3271;51.910;5.840;2022-10-16T11:56:11;7.57;;;1.92;;
6475;SDS011;3271;51.910;5.840;2022-10-16T12:01:17;5.38;;;2.03;;
6475;SDS011;3271;51.910;5.840;2022-10-16T12:03:48;5.15;;;1.90;;
6475;SDS011;3271;51.910;5.840;2022-10-16T12:06:30;5.70;;;2.00;;
6475;SDS011;3271;51.910;5.840;2022-10-16T12:08:58;8.30;;;1.98;;
6475;SDS011;3271;51.910;5.840;2022-10-16T12:16:39;5.53;;;2.03;;
6475;SDS011;3271;51.910;5.840;2022-10-16T12:19:16;8.15;;;2.60;;
6475;SDS011;3271;51.910;5.840;2022-10-16T12:21:43;7.82;;;2.50;;
6475;SDS011;3271;51.910;5.840;2022-10-16T12:26:47;7.10;;;2.25;;
6475;SDS011;3271;51.910;5.840;2022-10-16T12:31:49;7.90;;;2.55;;
6475;SDS011;3271;51.910;5.840;2022-10-16T12:36:47;5.50;;;1.70;;
6475;SDS011;3271;51.910;5.840;2022-10-16T12:39:20;4.45;;;1.83;;
6475;SDS011;3271;51.910;5.840;2022-10-16T12:41:46;5.90;;;2.15;;
6475;SDS011;3271;51.910;5.840;2022-10-16T12:44:25;9.88;;;2.92;;
6475;SDS011;3271;51.910;5.840;2022-10-16T12:46:51;7.15;;;2.30;;
6475;SDS011;3271;51.910;5.840;2022-10-16T12:49:29;4.60;;;1.65;;
6475;SDS011;3271;51.910;5.840;2022-10-16T12:51:55;7.47;;;1.80;;
6475;SDS011;3271;51.910;5.840;2022-10-16T12:54:27;4.82;;;1.60;;
6475;SDS011;3271;51.910;5.840;2022-10-16T12:59:50;8.18;;;2.40;;
6475;SDS011;3271;51.910;5.840;2022-10-16T13:02:32;9.20;;;2.30;;
6475;SDS011;3271;51.910;5.840;2022-10-16T13:07:39;7.40;;;1.85;;
6475;SDS011;3271;51.910;5.840;2022-10-16T13:10:13;8.18;;;1.67;;
6475;SDS011;3271;51.910;5.840;2022-10-16T13:15:28;8.20;;;2.40;;
6475;SDS011;3271;51.910;5.840;2022-10-16T13:18:12;5.05;;;1.50;;
6475;SDS011;3271;51.910;5.840;2022-10-16T13:20:53;5.22;;;1.75;;
6475;SDS011;3271;51.910;5.840;2022-10-16T13:23:24;6.03;;;1.65;;
6475;SDS011;3271;51.910;5.840;2022-10-16T13:25:56;4.97;;;1.75;;
6475;SDS011;3271;51.910;5.840;2022-10-16T13:28:27;7.25;;;1.90;;
6475;SDS011;3271;51.910;5.840;2022-10-16T13:30:54;9.15;;;2.28;;
6475;SDS011;3271;51.910;5.840;2022-10-16T13:33:39;5.45;;;1.83;;
6475;SDS011;3271;51.910;5.840;2022-10-16T13:36:05;4.70;;;1.70;;
6475;SDS011;3271;51.910;5.840;2022-10-16T13:38:35;6.07;;;1.70;;
6475;SDS011;3271;51.910;5.840;2022-10-16T13:41:02;5.07;;;1.70;;
6475;SDS011;3271;51.910;5.840;2022-10-16T13:46:01;5.63;;;2.10;;
6475;SDS011;3271;51.910;5.840;2022-10-16T13:48:28;6.18;;;1.75;;
6475;SDS011;3271;51.910;5.840;2022-10-16T13:51:01;5.05;;;1.88;;
6475;SDS011;3271;51.910;5.840;2022-10-16T13:53:29;7.75;;;2.08;;
6475;SDS011;3271;51.910;5.840;2022-10-16T13:55:55;3.70;;;1.80;;
6475;SDS011;3271;51.910;5.840;2022-10-16T13:58:22;7.43;;;1.83;;
6475;SDS011;3271;51.910;5.840;2022-10-16T14:01:04;6.10;;;1.75;;
6475;SDS011;3271;51.910;5.840;2022-10-16T14:03:30;6.32;;;1.65;;
6475;SDS011;3271;51.910;5.840;2022-10-16T14:05:58;3.80;;;1.63;;
6475;SDS011;3271;51.910;5.840;2022-10-16T14:08:24;4.93;;;1.50;;
6475;SDS011;3271;51.910;5.840;2022-10-16T14:10:52;7.82;;;1.83;;
6475;SDS011;3271;51.910;5.840;2022-10-16T14:13:20;4.13;;;1.52;;
6475;SDS011;3271;51.910;5.840;2022-10-16T14:15:50;9.63;;;1.80;;
6475;SDS011;3271;51.910;5.840;2022-10-16T14:18:18;6.60;;;1.75;;
6475;SDS011;3271;51.910;5.840;2022-10-16T14:20:45;5.70;;;1.90;;
6475;SDS011;3271;51.910;5.840;2022-10-16T14:23:19;7.65;;;2.35;;
6475;SDS011;3271;51.910;5.840;2022-10-16T14:25:45;8.50;;;2.00;;
6475;SDS011;3271;51.910;5.840;2022-10-16T14:30:50;4.88;;;1.45;;
6475;SDS011;3271;51.910;5.840;2022-10-16T14:33:24;4.82;;;2.00;;
6475;SDS011;3271;51.910;5.840;2022-10-16T14:38:26;6.05;;;1.85;;
6475;SDS011;3271;51.910;5.840;2022-10-16T14:40:52;5.45;;;2.30;;
6475;SDS011;3271;51.910;5.840;2022-10-16T14:43:22;5.15;;;2.25;;
6475;SDS011;3271;51.910;5.840;2022-10-16T14:45:54;8.10;;;2.40;;
6475;SDS011;3271;51.910;5.840;2022-10-16T14:48:21;5.07;;;2.30;;
6475;SDS011;3271;51.910;5.840;2022-10-16T14:50:47;5.38;;;1.60;;
6475;SDS011;3271;51.910;5.840;2022-10-16T14:53:13;6.25;;;1.60;;
6475;SDS011;3271;51.910;5.840;2022-10-16T14:55:40;3.88;;;1.73;;
6475;SDS011;3271;51.910;5.840;2022-10-16T14:58:16;5.88;;;1.65;;
6475;SDS011;3271;51.910;5.840;2022-10-16T15:00:43;4.20;;;1.80;;
6475;SDS011;3271;51.910;5.840;2022-10-16T15:03:09;9.10;;;1.60;;
6475;SDS011;3271;51.910;5.840;2022-10-16T15:05:35;8.38;;;2.28;;
6475;SDS011;3271;51.910;5.840;2022-10-16T15:08:01;6.00;;;1.67;;
6475;SDS011;3271;51.910;5.840;2022-10-16T15:10:29;7.28;;;1.90;;
6475;SDS011;3271;51.910;5.840;2022-10-16T15:12:56;6.20;;;1.95;;
6475;SDS011;3271;51.910;5.840;2022-10-16T15:17:52;5.88;;;1.58;;
6475;SDS011;3271;51.910;5.840;2022-10-16T15:20:20;5.53;;;1.67;;
6475;SDS011;3271;51.910;5.840;2022-10-16T15:22:46;4.22;;;1.60;;
6475;SDS011;3271;51.910;5.840;2022-10-16T15:25:27;8.75;;;1.77;;
6475;SDS011;3271;51.910;5.840;2022-10-16T15:27:53;7.72;;;2.15;;
6475;SDS011;3271;51.910;5.840;2022-10-16T15:30:20;6.22;;;2.05;;
6475;SDS011;3271;51.910;5.840;2022-10-16T15:32:46;4.28;;;1.45;;
6475;SDS011;3271;51.910;5.840;2022-10-16T15:35:12;5.00;;;1.67;;
6475;SDS011;3271;51.910;5.840;2022-10-16T15:37:37;4.18;;;1.38;;
6475;SDS011;3271;51.910;5.840;2022-10-16T15:40:04;5.20;;;2.30;;
6475;SDS011;3271;51.910;5.840;2022-10-16T15:42:30;2.40;;;1.48;;
6475;SDS011;3271;51.910;5.840;2022-10-16T15:44:55;4.97;;;1.80;;
6475;SDS011;3271;51.910;5.840;2022-10-16T15:47:21;3.08;;;1.70;;
6475;SDS011;3271;51.910;5.840;2022-10-16T15:49:47;4.18;;;1.88;;
6475;SDS011;3271;51.910;5.840;2022-10-16T15:52:13;5.40;;;1.88;;
6475;SDS011;3271;51.910;5.840;2022-10-16T15:54:39;7.28;;;1.67;;
6475;SDS011;3271;51.910;5.840;2022-10-16T15:57:05;3.58;;;1.40;;
6475;SDS011;3271;51.910;5.840;2022-10-16T15:59:31;7.30;;;1.83;;
6475;SDS011;3271;51.910;5.840;2022-10-16T16:01:57;5.70;;;1.65;;
6475;SDS011;3271;51.910;5.840;2022-10-16T16:04:23;5.38;;;1.95;;
6475;SDS011;3271;51.910;5.840;2022-10-16T16:06:49;5.00;;;1.70;;
6475;SDS011;3271;51.910;5.840;2022-10-16T16:09:15;4.03;;;2.00;;
6475;SDS011;3271;51.910;5.840;2022-10-16T16:11:41;6.40;;;1.90;;
6475;SDS011;3271;51.910;5.840;2022-10-16T16:14:07;6.30;;;1.48;;
6475;SDS011;3271;51.910;5.840;2022-10-16T16:16:33;4.25;;;1.85;;
6475;SDS011;3271;51.910;5.840;2022-10-16T16:19:02;3.78;;;1.52;;
6475;SDS011;3271;51.910;5.840;2022-10-16T16:21:28;4.78;;;1.35;;
6475;SDS011;3271;51.910;5.840;2022-10-16T16:23:54;5.40;;;1.80;;
6475;SDS011;3271;51.910;5.840;2022-10-16T16:28:46;3.83;;;1.45;;
6475;SDS011;3271;51.910;5.840;2022-10-16T16:31:12;6.85;;;1.60;;
6475;SDS011;3271;51.910;5.840;2022-10-16T16:33:38;4.60;;;1.90;;
6475;SDS011;3271;51.910;5.840;2022-10-16T16:36:04;6.88;;;1.85;;
6475;SDS011;3271;51.910;5.840;2022-10-16T16:38:31;6.75;;;1.80;;
6475;SDS011;3271;51.910;5.840;2022-10-16T16:40:57;4.45;;;1.58;;
6475;SDS011;3271;51.910;5.840;2022-10-16T16:43:24;6.63;;;1.75;;
6475;SDS011;3271;51.910;5.840;2022-10-16T16:45:50;4.03;;;1.63;;
6475;SDS011;3271;51.910;5.840;2022-10-16T16:48:16;4.20;;;3.20;;
6475;SDS011;3271;51.910;5.840;2022-10-16T16:50:42;6.28;;;3.72;;
6475;SDS011;3271;51.910;5.840;2022-10-16T16:53:08;5.03;;;2.83;;
6475;SDS011;3271;51.910;5.840;2022-10-16T16:55:34;6.28;;;2.08;;